Time;durP1;ratioP1;P1;durP2;ratioP2;P2;SDS_P1;SDS_P2;PMS_P1;PMS_P2;Temp;Humidity;BMP_temperature;BMP_pressure;BME280_temperature;BME280_humidity;BME280_pressure;Samples;Min_cycle;Max_cycle;Signal;HPM_P1;HPM_P2
2021/10/30 00:01:23;;;;;;;39.70;24.90;;;;;;;3.58;100.00;97715.28;5031771;28;20517;-69
2021/10/30 00:03:51;;;;;;;40.07;22.90;;;;;;;3.43;100.00;97710.38;5031887;28;20219;-69
2021/10/30 00:06:20;;;;;;;35.13;22.07;;;;;;;3.47;100.00;97717.03;5001276;28;20227;-69
2021/10/30 00:08:49;;;;;;;34.70;22.70;;;;;;;3.49;100.00;97714.28;5031304;28;20711;-69
2021/10/30 00:11:17;;;;;;;35.60;21.77;;;;;;;3.44;100.00;97703.34;5032133;28;20226;-69
2021/10/30 00:13:45;;;;;;;36.50;24.27;;;;;;;3.44;100.00;97712.03;5018495;28;20309;-69
2021/10/30 00:16:14;;;;;;;38.07;22.57;;;;;;;3.58;100.00;97720.53;5033832;28;20200;-69
2021/10/30 00:18:42;;;;;;;32.27;23.03;;;;;;;3.47;100.00;97724.88;5031342;28;20530;-69
2021/10/30 00:21:10;;;;;;;37.27;24.00;;;;;;;3.64;100.00;97720.06;4999387;28;20228;-69
2021/10/30 00:23:38;;;;;;;35.17;23.80;;;;;;;3.54;100.00;97719.97;5030556;28;20681;-69
2021/10/30 00:26:08;;;;;;;33.83;22.53;;;;;;;3.54;100.00;97719.97;5031774;28;20785;-68
2021/10/30 00:28:36;;;;;;;35.33;22.57;;;;;;;3.51;100.00;97717.63;5015198;28;24146;-69
2021/10/30 00:31:04;;;;;;;35.47;22.83;;;;;;;3.47;100.00;97722.25;5036215;28;20223;-69
2021/10/30 00:33:33;;;;;;;38.80;22.33;;;;;;;3.39;100.00;97716.81;5027223;28;20448;-69
2021/10/30 00:36:01;;;;;;;33.73;23.90;;;;;;;3.39;100.00;97710.75;5032280;28;20559;-69
2021/10/30 00:38:29;;;;;;;32.27;23.00;;;;;;;3.39;100.00;97714.19;4994874;28;20239;-69
2021/10/30 00:40:57;;;;;;;36.70;22.70;;;;;;;3.38;100.00;97709.91;5031554;28;20219;-69
2021/10/30 00:43:27;;;;;;;35.80;22.73;;;;;;;3.38;100.00;97701.22;5027271;28;20216;-69
2021/10/30 00:45:55;;;;;;;33.10;21.97;;;;;;;3.33;100.00;97702.44;5019933;28;20254;-69
2021/10/30 00:48:23;;;;;;;30.90;21.00;;;;;;;3.41;100.00;97703.59;5026189;28;20620;-69
2021/10/30 00:50:52;;;;;;;32.47;21.60;;;;;;;3.45;100.00;97710.25;5031243;28;20199;-69
2021/10/30 00:53:20;;;;;;;28.03;19.47;;;;;;;3.31;100.00;97706.97;4995379;28;20203;-69
2021/10/30 00:55:48;;;;;;;37.07;21.53;;;;;;;3.37;100.00;97716.13;5031854;28;20409;-69
2021/10/30 00:58:16;;;;;;;32.27;21.23;;;;;;;3.30;100.00;97712.34;5030787;28;20722;-69
2021/10/30 01:00:45;;;;;;;30.43;20.27;;;;;;;3.29;100.00;97710.69;5014613;28;20904;-69
2021/10/30 01:03:14;;;;;;;32.57;20.83;;;;;;;3.29;100.00;97708.88;5014861;28;20336;-68
2021/10/30 01:05:42;;;;;;;34.77;21.77;;;;;;;3.31;100.00;97712.19;5030072;28;20231;-70
2021/10/30 01:08:13;;;;;;;31.10;21.33;;;;;;;3.40;100.00;97713.25;4995986;28;20614;-70
2021/10/30 01:10:41;;;;;;;30.37;20.57;;;;;;;3.47;100.00;97708.34;5026363;28;20257;-70
2021/10/30 01:13:09;;;;;;;29.33;20.87;;;;;;;3.39;100.00;97721.22;5030089;28;20717;-69
2021/10/30 01:15:37;;;;;;;30.23;20.60;;;;;;;3.45;100.00;97707.63;5009964;28;20725;-71
2021/10/30 01:18:07;;;;;;;32.00;21.53;;;;;;;3.33;100.00;97702.44;5031742;28;20440;-71
2021/10/30 01:20:36;;;;;;;32.63;21.63;;;;;;;3.26;100.00;97695.22;5026318;28;20489;-70
2021/10/30 01:23:04;;;;;;;28.10;19.53;;;;;;;3.25;100.00;97694.38;4994848;28;20219;-69
2021/10/30 01:25:32;;;;;;;32.70;21.07;;;;;;;3.32;100.00;97694.72;5011528;28;20342;-69
2021/10/30 01:28:01;;;;;;;28.83;19.57;;;;;;;3.37;100.00;97695.16;5030515;28;20216;-69
2021/10/30 01:30:29;;;;;;;32.90;20.37;;;;;;;3.27;100.00;97686.41;5028817;28;20425;-69
2021/10/30 01:32:58;;;;;;;31.50;21.77;;;;;;;3.30;100.00;97692.19;5020608;28;20228;-70
2021/10/30 01:35:29;;;;;;;28.10;21.07;;;;;;;3.17;100.00;97684.50;4990129;28;20208;-70
2021/10/30 01:37:59;;;;;;;34.17;20.77;;;;;;;3.19;100.00;97679.97;4987373;28;20609;-69
2021/10/30 01:40:30;;;;;;;28.07;20.87;;;;;;;3.20;100.00;97672.97;5004256;28;20214;-69
2021/10/30 01:43:00;;;;;;;28.50;20.53;;;;;;;3.25;100.00;97669.97;5033772;28;20471;-69
2021/10/30 01:45:29;;;;;;;31.50;19.30;;;;;;;3.25;100.00;97681.28;5030456;28;20249;-70
2021/10/30 01:47:57;;;;;;;32.43;21.97;;;;;;;3.26;100.00;97675.06;5018659;28;20222;-69
2021/10/30 01:50:27;;;;;;;30.47;20.57;;;;;;;3.37;100.00;97668.13;5030294;28;20533;-69
2021/10/30 01:52:55;;;;;;;31.37;20.73;;;;;;;3.23;100.00;97670.09;4997028;28;20353;-69
2021/10/30 01:55:24;;;;;;;30.30;20.23;;;;;;;3.15;100.00;97665.47;5009101;28;20220;-69
2021/10/30 01:57:52;;;;;;;34.70;21.07;;;;;;;3.11;100.00;97664.06;4984623;28;20218;-69
2021/10/30 02:00:21;;;;;;;33.63;20.60;;;;;;;3.10;100.00;97667.63;5032687;28;20462;-69
2021/10/30 02:02:49;;;;;;;28.50;19.43;;;;;;;3.11;100.00;97669.31;5037669;28;20391;-70
2021/10/30 02:05:17;;;;;;;24.97;19.17;;;;;;;3.10;100.00;97664.22;5031189;28;20325;-69
2021/10/30 02:07:45;;;;;;;30.23;20.43;;;;;;;3.05;100.00;97654.09;5033459;28;20215;-70
2021/10/30 02:10:14;;;;;;;34.77;21.27;;;;;;;3.02;100.00;97647.31;5015130;28;20348;-69
2021/10/30 02:12:44;;;;;;;34.73;21.53;;;;;;;3.07;100.00;97644.31;5031812;28;20342;-70
2021/10/30 02:15:12;;;;;;;32.17;21.40;;;;;;;3.03;100.00;97637.69;4988037;28;20757;-69
2021/10/30 02:17:40;;;;;;;31.43;21.17;;;;;;;3.12;100.00;97642.16;5034305;28;20231;-69
2021/10/30 02:20:10;;;;;;;32.77;20.37;;;;;;;3.07;100.00;97640.91;5026846;28;20432;-70
2021/10/30 02:22:39;;;;;;;31.50;19.30;;;;;;;3.10;100.00;97638.03;5025545;28;20275;-69
2021/10/30 02:25:08;;;;;;;28.53;19.17;;;;;;;2.96;100.00;97637.34;5032458;28;20277;-69
2021/10/30 02:27:37;;;;;;;31.17;19.83;;;;;;;2.93;100.00;97636.78;5029819;28;20437;-69
2021/10/30 02:30:08;;;;;;;28.33;19.10;;;;;;;2.93;100.00;97632.34;4978131;28;20219;-70
2021/10/30 02:32:36;;;;;;;35.50;21.60;;;;;;;3.03;100.00;97620.19;5029784;28;20699;-69
2021/10/30 02:35:05;;;;;;;31.63;20.50;;;;;;;3.05;100.00;97627.91;5033119;28;20235;-70
2021/10/30 02:37:32;;;;;;;29.83;20.87;;;;;;;3.12;100.00;97623.84;5030836;28;20510;-69
2021/10/30 02:40:00;;;;;;;32.40;19.27;;;;;;;3.09;100.00;97623.28;5012250;28;20228;-70
2021/10/30 02:42:28;;;;;;;29.17;19.67;;;;;;;3.02;100.00;97625.56;5029011;28;20360;-69
2021/10/30 02:44:56;;;;;;;28.00;19.90;;;;;;;3.07;100.00;97623.38;4990005;28;20211;-69
2021/10/30 02:47:26;;;;;;;29.53;21.00;;;;;;;2.99;100.00;97618.75;5016993;28;20466;-69
2021/10/30 02:49:53;;;;;;;28.83;19.73;;;;;;;2.98;100.00;97619.72;5034713;28;20211;-70
2021/10/30 02:52:21;;;;;;;27.80;18.47;;;;;;;3.01;100.00;97619.47;5032341;28;20750;-70
2021/10/30 02:54:49;;;;;;;30.43;19.63;;;;;;;2.99;100.00;97628.41;5034542;28;20219;-69
2021/10/30 02:57:20;;;;;;;29.93;19.77;;;;;;;2.92;100.00;97619.41;5033327;28;20988;-69
2021/10/30 02:59:48;;;;;;;27.80;17.70;;;;;;;2.91;100.00;97620.38;4998992;28;20207;-69
2021/10/30 03:02:16;;;;;;;28.33;19.10;;;;;;;2.81;100.00;97623.72;5018465;28;20238;-68
2021/10/30 03:04:46;;;;;;;28.17;18.33;;;;;;;2.81;100.00;97628.13;5031996;28;20266;-70
2021/10/30 03:07:14;;;;;;;26.13;17.50;;;;;;;2.87;100.00;97628.47;5031728;28;20258;-70
2021/10/30 03:09:47;;;;;;;27.33;17.53;;;;;;;2.86;100.00;97621.56;5035368;28;20241;-70
2021/10/30 03:12:15;;;;;;;25.50;18.77;;;;;;;2.77;100.00;97614.44;5030699;28;20227;-70
2021/10/30 03:14:43;;;;;;;21.30;15.83;;;;;;;2.68;100.00;97620.44;5033866;28;20360;-70
2021/10/30 03:17:11;;;;;;;25.07;17.13;;;;;;;2.72;100.00;97619.22;4985134;28;20210;-69
2021/10/30 03:19:39;;;;;;;24.57;16.60;;;;;;;2.68;100.00;97615.19;5032590;28;20651;-70
2021/10/30 03:22:09;;;;;;;26.47;17.47;;;;;;;2.68;100.00;97617.81;5032415;28;20223;-70
2021/10/30 03:24:37;;;;;;;27.10;17.83;;;;;;;2.63;100.00;97618.16;5035390;28;20824;-70
2021/10/30 03:27:06;;;;;;;23.07;16.73;;;;;;;2.62;100.00;97616.50;5029192;28;20668;-70
2021/10/30 03:29:34;;;;;;;29.43;19.70;;;;;;;2.67;100.00;97613.53;5033331;28;20416;-71
2021/10/30 03:32:01;;;;;;;27.10;18.17;;;;;;;2.63;100.00;97619.97;4984861;28;20539;-70
2021/10/30 03:34:29;;;;;;;26.10;17.60;;;;;;;2.60;100.00;97619.25;5028866;28;20292;-70
2021/10/30 03:36:57;;;;;;;28.13;18.27;;;;;;;2.64;100.00;97619.00;5034927;28;20205;-70
2021/10/30 03:39:27;;;;;;;25.30;16.83;;;;;;;2.64;100.00;97611.97;5031282;28;20416;-70
2021/10/30 03:41:54;;;;;;;27.33;17.97;;;;;;;2.65;100.00;97613.66;5037118;28;20231;-69
2021/10/30 03:44:23;;;;;;;26.30;18.13;;;;;;;2.63;100.00;97612.13;5030272;28;20650;-70
2021/10/30 03:46:51;;;;;;;25.57;16.43;;;;;;;2.66;100.00;97606.63;4999737;28;20254;-70
2021/10/30 03:49:19;;;;;;;23.57;16.50;;;;;;;2.72;100.00;97598.28;5030635;28;20621;-70
2021/10/30 03:51:47;;;;;;;27.90;17.83;;;;;;;2.70;100.00;97597.59;5022770;28;20227;-71
2021/10/30 03:54:15;;;;;;;24.13;16.77;;;;;;;2.67;100.00;97595.22;5030759;28;20211;-69
2021/10/30 03:56:44;;;;;;;24.87;17.07;;;;;;;2.69;100.00;97590.69;5032338;28;20200;-70
2021/10/30 03:59:12;;;;;;;28.27;18.10;;;;;;;2.80;100.00;97592.44;5032005;28;20703;-69
2021/10/30 04:01:40;;;;;;;22.87;16.33;;;;;;;2.81;100.00;97587.06;5033282;28;20564;-70
2021/10/30 04:04:08;;;;;;;28.63;16.57;;;;;;;2.93;100.00;97587.03;5001176;28;20227;-70
2021/10/30 04:06:36;;;;;;;25.80;18.60;;;;;;;2.89;100.00;97586.44;4991629;28;20227;-69
2021/10/30 04:09:04;;;;;;;27.80;18.43;;;;;;;2.84;100.00;97581.63;5032656;28;20611;-71
2021/10/30 04:11:32;;;;;;;26.03;17.00;;;;;;;2.81;100.00;97581.03;5032211;28;20231;-69
2021/10/30 04:14:02;;;;;;;24.40;15.40;;;;;;;2.78;100.00;97569.00;5010735;28;20212;-70
2021/10/30 04:16:30;;;;;;;20.50;16.00;;;;;;;2.78;100.00;97562.94;5028891;28;20204;-69
2021/10/30 04:18:58;;;;;;;25.47;17.43;;;;;;;2.86;100.00;97566.59;5020721;28;20708;-70
2021/10/30 04:21:26;;;;;;;28.10;17.23;;;;;;;2.77;100.00;97566.53;4997634;28;20238;-69
2021/10/30 04:23:57;;;;;;;23.93;17.67;;;;;;;2.84;100.00;97571.16;5014199;28;20553;-70
2021/10/30 04:26:25;;;;;;;27.63;16.77;;;;;;;2.72;100.00;97566.88;5030058;28;20238;-69
2021/10/30 04:28:53;;;;;;;23.67;16.57;;;;;;;2.68;100.00;97555.84;5010701;28;20715;-69
2021/10/30 04:31:24;;;;;;;24.37;15.90;;;;;;;2.69;100.00;97552.28;5031906;28;20563;-69
2021/10/30 04:33:55;;;;;;;21.83;15.47;;;;;;;2.79;100.00;97552.34;5018199;28;20208;-70
2021/10/30 04:36:25;;;;;;;22.67;17.33;;;;;;;2.70;100.00;97550.47;4997538;28;20582;-69
2021/10/30 04:38:53;;;;;;;26.70;17.23;;;;;;;2.62;100.00;97542.44;5030031;28;20303;-69
2021/10/30 04:41:22;;;;;;;23.13;15.93;;;;;;;2.64;100.00;97538.72;5032027;28;20247;-69
2021/10/30 04:43:50;;;;;;;29.10;16.93;;;;;;;2.60;100.00;97535.53;5031462;28;20421;-70
2021/10/30 04:46:20;;;;;;;27.07;17.47;;;;;;;2.65;100.00;97532.56;5033325;28;20214;-69
2021/10/30 04:48:50;;;;;;;25.57;17.40;;;;;;;2.62;100.00;97532.78;5020445;28;20215;-69
2021/10/30 04:51:18;;;;;;;26.47;18.40;;;;;;;2.71;100.00;97531.22;4997556;28;20699;-69
2021/10/30 04:53:46;;;;;;;27.27;17.30;;;;;;;2.62;100.00;97524.13;5027995;28;20431;-69
2021/10/30 04:56:14;;;;;;;22.37;16.47;;;;;;;2.63;100.00;97528.41;5031930;28;20212;-69
2021/10/30 04:58:44;;;;;;;20.43;15.70;;;;;;;2.51;100.00;97517.97;5025869;28;20808;-70
2021/10/30 05:01:13;;;;;;;24.17;16.07;;;;;;;2.49;100.00;97514.66;5029296;28;20743;-69
2021/10/30 05:03:42;;;;;;;24.40;17.00;;;;;;;2.49;100.00;97508.59;5001570;28;20853;-67
2021/10/30 05:06:12;;;;;;;25.70;16.50;;;;;;;2.53;100.00;97508.22;5032363;28;20211;-67
2021/10/30 05:08:40;;;;;;;25.47;17.33;;;;;;;2.53;100.00;97513.47;4969400;28;20232;-75
2021/10/30 05:11:08;;;;;;;23.50;16.07;;;;;;;2.78;100.00;97508.00;5032654;28;20219;-68
2021/10/30 05:13:36;;;;;;;24.93;15.50;;;;;;;2.66;100.00;97517.69;5013330;28;20211;-71
2021/10/30 05:16:05;;;;;;;24.43;17.10;;;;;;;2.57;100.00;97512.25;5031901;28;20227;-70
2021/10/30 05:18:33;;;;;;;20.23;14.23;;;;;;;2.81;100.00;97518.22;5026978;28;20203;-71
2021/10/30 05:21:01;;;;;;;20.10;14.27;;;;;;;2.74;100.00;97513.50;5016652;28;20603;-71
2021/10/30 05:23:30;;;;;;;18.20;13.77;;;;;;;2.72;100.00;97511.94;4999348;28;20218;-72
2021/10/30 05:25:58;;;;;;;19.40;14.37;;;;;;;2.59;100.00;97505.09;5033259;28;20667;-68
2021/10/30 05:28:26;;;;;;;17.07;14.07;;;;;;;2.57;100.00;97486.09;5025811;28;20235;-67
2021/10/30 05:30:54;;;;;;;19.53;14.97;;;;;;;2.45;100.00;97489.69;5029104;28;20230;-68
2021/10/30 05:33:23;;;;;;;22.10;15.57;;;;;;;2.42;100.00;97490.78;5028674;28;20699;-68
2021/10/30 05:35:51;;;;;;;18.37;14.60;;;;;;;2.48;100.00;97484.25;5025417;28;20744;-69
2021/10/30 05:38:19;;;;;;;18.40;14.10;;;;;;;2.36;100.00;97480.84;5019728;28;20275;-68
2021/10/30 05:40:49;;;;;;;21.07;13.93;;;;;;;2.34;100.00;97481.91;5013722;28;20200;-68
2021/10/30 05:43:17;;;;;;;16.50;13.63;;;;;;;2.38;100.00;97486.75;5031658;28;20228;-69
2021/10/30 05:45:46;;;;;;;19.17;14.67;;;;;;;2.31;100.00;97475.16;5030928;28;20820;-67
2021/10/30 05:48:17;;;;;;;20.17;14.47;;;;;;;2.38;100.00;97470.22;5032821;28;20648;-68
2021/10/30 05:50:45;;;;;;;18.70;14.03;;;;;;;2.34;100.00;97472.28;5012417;28;20309;-67
2021/10/30 05:53:13;;;;;;;18.57;13.93;;;;;;;2.28;100.00;97465.75;5031460;28;20212;-68
2021/10/30 05:55:41;;;;;;;20.77;15.20;;;;;;;2.31;100.00;97459.47;5008245;28;20215;-67
2021/10/30 05:58:11;;;;;;;20.13;14.70;;;;;;;2.50;100.00;97455.31;5033197;28;20254;-65
2021/10/30 06:00:39;;;;;;;17.07;12.90;;;;;;;2.41;100.00;97454.28;5027257;28;20208;-68
2021/10/30 06:03:07;;;;;;;16.70;14.40;;;;;;;2.47;100.00;97453.81;5031871;28;20298;-68
2021/10/30 06:05:35;;;;;;;19.43;14.30;;;;;;;2.39;100.00;97450.97;5028028;28;20614;-69
2021/10/30 06:08:03;;;;;;;19.77;14.70;;;;;;;2.36;100.00;97461.69;5022375;28;20235;-68
2021/10/30 06:10:31;;;;;;;19.40;16.27;;;;;;;2.37;100.00;97448.50;4998867;28;20679;-66
2021/10/30 06:12:59;;;;;;;20.03;15.50;;;;;;;2.26;100.00;97438.06;5002093;28;20242;-69
2021/10/30 06:15:28;;;;;;;20.47;15.20;;;;;;;2.39;100.00;97430.88;5034398;28;20210;-68
2021/10/30 06:17:56;;;;;;;19.80;15.97;;;;;;;2.38;100.00;97431.00;5010498;28;20219;-68
2021/10/30 06:20:24;;;;;;;21.03;17.33;;;;;;;2.42;100.00;97435.03;5018064;28;20207;-67
2021/10/30 06:22:52;;;;;;;21.63;17.33;;;;;;;2.45;100.00;97434.75;5029586;28;20227;-69
2021/10/30 06:25:20;;;;;;;23.93;18.10;;;;;;;2.48;100.00;97438.94;5020979;28;20664;-68
2021/10/30 06:27:48;;;;;;;24.93;18.07;;;;;;;2.41;100.00;97431.59;5000029;28;20365;-68
2021/10/30 06:30:17;;;;;;;23.03;17.63;;;;;;;2.57;100.00;97428.53;5018690;28;20620;-69
2021/10/30 06:32:46;;;;;;;23.67;18.70;;;;;;;2.66;100.00;97428.72;5027092;28;20462;-68
2021/10/30 06:35:14;;;;;;;21.53;17.63;;;;;;;2.62;100.00;97422.91;5033705;28;20919;-67
2021/10/30 06:37:42;;;;;;;21.60;16.33;;;;;;;2.65;100.00;97429.69;5028999;28;20208;-68
2021/10/30 06:40:13;;;;;;;21.23;18.03;;;;;;;2.59;100.00;97431.00;5020508;28;20662;-68
2021/10/30 06:42:41;;;;;;;22.27;16.97;;;;;;;2.65;100.00;97429.69;4995710;28;20909;-68
2021/10/30 06:45:10;;;;;;;20.87;16.87;;;;;;;2.67;100.00;97415.53;5032572;28;20634;-69
2021/10/30 06:47:38;;;;;;;23.43;17.50;;;;;;;2.63;100.00;97426.38;5026805;28;20232;-68
2021/10/30 06:50:09;;;;;;;31.37;22.93;;;;;;;2.73;100.00;97412.41;5031918;28;20207;-68
2021/10/30 06:52:38;;;;;;;23.47;18.50;;;;;;;2.78;100.00;97416.41;5029869;28;20251;-68
2021/10/30 06:55:07;;;;;;;22.30;19.00;;;;;;;2.94;100.00;97414.13;5017974;28;20214;-67
2021/10/30 06:57:36;;;;;;;22.53;17.80;;;;;;;2.93;100.00;97425.56;5031016;28;20211;-67
2021/10/30 07:00:06;;;;;;;21.50;17.27;;;;;;;2.99;100.00;97421.63;5006290;28;20625;-68
2021/10/30 07:02:35;;;;;;;21.43;17.77;;;;;;;2.97;100.00;97415.69;5028114;28;20921;-67
2021/10/30 07:05:08;;;;;;;21.70;17.80;;;;;;;2.87;100.00;97405.16;5035729;28;20322;-68
2021/10/30 07:07:36;;;;;;;20.93;17.80;;;;;;;2.88;100.00;97420.75;5026460;28;20310;-66
2021/10/30 07:10:05;;;;;;;21.70;17.80;;;;;;;3.01;100.00;97417.06;5034557;28;20208;-68
2021/10/30 07:12:35;;;;;;;21.90;17.60;;;;;;;3.07;100.00;97416.56;5016924;28;20246;-67
2021/10/30 07:15:06;;;;;;;23.07;17.37;;;;;;;3.10;100.00;97421.53;4996177;28;20610;-68
2021/10/30 07:17:35;;;;;;;20.63;16.77;;;;;;;3.12;100.00;97413.56;5022453;28;20299;-67
2021/10/30 07:20:03;;;;;;;22.90;18.67;;;;;;;3.18;100.00;97418.25;5033397;28;20203;-68
2021/10/30 07:22:33;;;;;;;22.33;18.63;;;;;;;3.18;100.00;97436.59;5010015;28;20726;-67
2021/10/30 07:25:02;;;;;;;18.10;16.17;;;;;;;3.13;100.00;97436.97;5013067;28;20219;-67
2021/10/30 07:27:30;;;;;;;23.23;18.87;;;;;;;3.37;100.00;97420.13;5011582;28;20207;-68
2021/10/30 07:29:58;;;;;;;21.73;17.50;;;;;;;3.23;100.00;97418.69;4991421;28;20232;-67
2021/10/30 07:32:27;;;;;;;22.43;19.13;;;;;;;3.43;100.00;97429.25;5031170;28;20239;-68
2021/10/30 07:34:55;;;;;;;24.40;18.87;;;;;;;3.38;100.00;97416.53;5029457;28;20548;-67
2021/10/30 07:37:23;;;;;;;20.97;18.73;;;;;;;3.44;100.00;97408.16;5032353;28;20212;-69
2021/10/30 07:39:52;;;;;;;27.10;19.73;;;;;;;3.50;100.00;97398.94;5032983;28;20231;-66
2021/10/30 07:42:20;;;;;;;27.17;22.07;;;;;;;3.62;100.00;97397.03;5022474;28;20623;-69
2021/10/30 07:44:48;;;;;;;25.57;21.07;;;;;;;3.64;100.00;97396.88;5027886;28;20215;-67
2021/10/30 07:47:16;;;;;;;21.67;18.77;;;;;;;3.72;100.00;97386.56;4992055;28;20314;-69
2021/10/30 07:49:44;;;;;;;23.40;19.93;;;;;;;3.62;100.00;97381.31;5028424;28;20219;-68
2021/10/30 07:52:13;;;;;;;20.43;18.33;;;;;;;3.77;100.00;97384.34;5029342;28;20219;-68
2021/10/30 07:54:41;;;;;;;22.23;19.93;;;;;;;3.66;100.00;97372.22;5033859;28;20203;-69
2021/10/30 07:57:11;;;;;;;25.17;21.17;;;;;;;3.86;100.00;97366.97;5030396;28;20238;-68
2021/10/30 07:59:39;;;;;;;28.57;23.10;;;;;;;3.92;100.00;97361.19;5018956;28;20211;-68
2021/10/30 08:02:08;;;;;;;38.87;34.03;;;;;;;3.95;100.00;97352.22;4996454;28;20250;-67
2021/10/30 08:04:37;;;;;;;38.97;34.67;;;;;;;4.21;100.00;97336.75;5030025;28;20216;-69
2021/10/30 08:07:06;;;;;;;26.87;24.17;;;;;;;4.18;100.00;97321.31;5012023;28;20327;-69
2021/10/30 08:09:34;;;;;;;25.70;23.00;;;;;;;4.21;100.00;97321.03;5029555;28;20239;-68
2021/10/30 08:12:02;;;;;;;20.50;18.40;;;;;;;4.62;100.00;97312.94;5011285;28;20236;-66
2021/10/30 08:14:31;;;;;;;22.17;19.50;;;;;;;4.48;100.00;97312.41;5021387;28;20587;-69
2021/10/30 08:16:59;;;;;;;19.23;17.23;;;;;;;4.58;100.00;97295.81;5002012;28;20199;-68
2021/10/30 08:19:27;;;;;;;18.77;16.90;;;;;;;4.66;100.00;97289.84;4996090;28;20893;-66
2021/10/30 08:21:55;;;;;;;19.50;17.40;;;;;;;4.72;100.00;97295.34;5026673;28;20235;-68
2021/10/30 08:24:24;;;;;;;19.23;17.33;;;;;;;4.72;100.00;97290.09;5031819;28;20213;-68
2021/10/30 08:26:53;;;;;;;20.17;17.63;;;;;;;4.76;100.00;97280.97;5029126;28;20239;-68
2021/10/30 08:29:21;;;;;;;18.43;15.80;;;;;;;4.97;100.00;97293.03;5032153;28;20643;-68
2021/10/30 08:31:50;;;;;;;18.90;16.10;;;;;;;5.04;100.00;97282.75;5029564;28;20813;-67
2021/10/30 08:34:18;;;;;;;17.77;15.87;;;;;;;5.19;100.00;97283.94;5032035;28;20215;-68
2021/10/30 08:36:46;;;;;;;17.97;16.10;;;;;;;5.24;100.00;97287.91;4999258;28;21386;-68
2021/10/30 08:39:14;;;;;;;16.20;14.60;;;;;;;5.47;100.00;97283.88;5034002;28;20481;-69
2021/10/30 08:41:42;;;;;;;16.30;14.60;;;;;;;5.46;100.00;97278.78;5028746;28;20235;-68
2021/10/30 08:44:10;;;;;;;17.13;15.37;;;;;;;5.62;100.00;97286.00;5032609;28;20361;-68
2021/10/30 08:46:38;;;;;;;16.00;14.43;;;;;;;5.70;100.00;97295.78;5031785;28;20216;-68
2021/10/30 08:49:10;;;;;;;16.83;15.13;;;;;;;5.59;100.00;97297.63;5031344;28;20448;-68
2021/10/30 08:51:40;;;;;;;17.37;15.17;;;;;;;5.72;100.00;97305.16;5002286;28;20240;-67
2021/10/30 08:54:08;;;;;;;20.27;17.53;;;;;;;5.97;100.00;97301.91;5028436;28;20211;-69
2021/10/30 08:56:37;;;;;;;17.60;15.80;;;;;;;5.98;100.00;97304.41;5030003;28;20207;-68
2021/10/30 08:59:06;;;;;;;17.33;15.53;;;;;;;6.14;100.00;97300.25;5030547;28;20707;-69
2021/10/30 09:01:44;;;;;;;15.67;13.90;;;;;;;6.40;100.00;97297.66;5031875;28;20242;-68
2021/10/30 09:04:16;;;;;;;15.77;14.27;;;;;;;6.56;100.00;97286.38;5029134;28;20222;-69
2021/10/30 09:06:57;;;;;;;17.60;14.57;;;;;;;6.68;100.00;97280.88;4997003;28;20224;-68
2021/10/30 09:09:25;;;;;;;16.10;14.50;;;;;;;6.66;100.00;97284.50;5033049;28;20750;-69
2021/10/30 09:11:54;;;;;;;15.70;14.20;;;;;;;6.77;100.00;97293.91;5025882;28;20224;-69
2021/10/30 09:14:23;;;;;;;17.07;15.37;;;;;;;6.81;100.00;97297.06;5031069;28;20203;-69
2021/10/30 09:17:24;;;;;;;17.37;15.37;;;;;;;7.06;100.00;97295.34;5027229;28;20674;-68
2021/10/30 09:19:55;;;;;;;15.77;14.23;;;;;;;7.31;100.00;97294.63;4995865;28;21653;-68
2021/10/30 09:22:24;;;;;;;15.90;14.20;;;;;;;7.19;100.00;97299.34;5029760;28;20231;-68
2021/10/30 09:24:58;;;;;;;16.33;14.77;;;;;;;7.33;100.00;97293.47;5028342;28;20199;-67
2021/10/30 09:27:49;;;;;;;15.70;14.10;;;;;;;7.22;100.00;97299.06;5032736;28;20205;-68
2021/10/30 09:30:21;;;;;;;15.87;14.30;;;;;;;7.38;100.00;97290.34;5031596;28;20238;-69
2021/10/30 09:32:53;;;;;;;15.97;14.27;;;;;;;7.45;100.00;97282.63;5028204;28;20224;-67
2021/10/30 09:35:24;;;;;;;16.70;15.20;;;;;;;7.60;100.00;97281.03;5031808;28;20200;-69
2021/10/30 09:37:53;;;;;;;18.33;14.80;;;;;;;7.86;100.00;97273.94;4996573;28;20742;-69
2021/10/30 09:40:24;;;;;;;16.10;14.13;;;;;;;7.97;100.00;97257.78;5032464;28;20207;-69
2021/10/30 09:43:09;;;;;;;15.93;14.23;;;;;;;8.04;100.00;97253.47;5025976;28;20262;-68
2021/10/30 09:45:44;;;;;;;17.60;15.53;;;;;;;8.40;100.00;97274.22;5027142;28;20548;-68
2021/10/30 09:48:13;;;;;;;16.50;14.63;;;;;;;8.29;100.00;97273.75;5030747;28;20220;-69
2021/10/30 09:50:43;;;;;;;15.37;13.97;;;;;;;8.47;100.00;97261.19;5013067;28;20709;-67
2021/10/30 09:53:29;;;;;;;16.20;14.63;;;;;;;8.71;100.00;97256.84;5023872;28;20664;-68
2021/10/30 09:55:59;;;;;;;15.33;13.73;;;;;;;8.86;100.00;97245.59;5028641;28;20880;-69
2021/10/30 09:58:38;;;;;;;16.17;14.13;;;;;;;8.83;100.00;97247.56;5031399;28;20246;-69
2021/10/30 10:01:09;;;;;;;14.00;12.70;;;;;;;9.21;100.00;97249.53;5023835;28;20288;-68
2021/10/30 10:03:38;;;;;;;15.70;14.03;;;;;;;9.15;100.00;97241.50;5024704;28;20215;-67
2021/10/30 10:06:09;;;;;;;15.27;13.77;;;;;;;9.30;100.00;97238.94;5027220;28;20317;-68
2021/10/30 10:08:40;;;;;;;18.70;15.27;;;;;;;9.23;100.00;97230.88;5002469;28;20223;-68
2021/10/30 10:11:10;;;;;;;15.90;14.40;;;;;;;9.08;100.00;97226.31;5029983;28;20447;-70
2021/10/30 10:13:39;;;;;;;16.70;15.07;;;;;;;9.22;100.00;97237.97;5033677;28;20212;-68
2021/10/30 10:16:12;;;;;;;15.07;13.67;;;;;;;9.21;100.00;97224.94;5031561;28;20861;-69
2021/10/30 10:18:40;;;;;;;15.93;14.43;;;;;;;9.27;100.00;97216.28;5033880;28;20219;-68
2021/10/30 10:21:12;;;;;;;14.63;13.20;;;;;;;9.46;100.00;97216.81;5032960;28;20224;-68
2021/10/30 10:23:41;;;;;;;14.70;13.10;;;;;;;9.52;100.00;97209.03;5000337;28;20215;-67
2021/10/30 10:26:11;;;;;;;15.93;14.07;;;;;;;9.38;100.00;97202.66;5037341;28;20432;-69
2021/10/30 10:28:39;;;;;;;16.77;14.10;;;;;;;9.72;100.00;97200.63;4998714;28;20737;-69
2021/10/30 10:31:11;;;;;;;14.83;13.33;;;;;;;10.00;100.00;97207.97;5028706;28;20227;-68
2021/10/30 10:33:41;;;;;;;13.93;12.53;;;;;;;10.03;100.00;97197.00;5033463;28;20219;-68
2021/10/30 10:36:24;;;;;;;14.73;13.30;;;;;;;9.82;100.00;97182.66;5016987;28;20209;-68
2021/10/30 10:39:18;;;;;;;13.57;12.17;;;;;;;10.00;100.00;97186.78;5026685;28;20204;-68
2021/10/30 10:42:07;;;;;;;13.90;12.50;;;;;;;10.23;100.00;97177.97;5015609;28;20702;-69
2021/10/30 10:45:02;;;;;;;14.27;12.87;;;;;;;10.30;100.00;97178.88;4999734;28;20592;-69
2021/10/30 10:48:04;;;;;;;13.63;12.20;;;;;;;10.66;100.00;97174.72;5024297;28;20201;-67
2021/10/30 10:50:50;;;;;;;13.33;11.93;;;;;;;10.85;100.00;97174.13;5040616;28;20219;-69
2021/10/30 10:53:21;;;;;;;12.43;11.33;;;;;;;11.04;100.00;97168.41;5035073;28;20203;-70
2021/10/30 10:56:19;;;;;;;13.73;12.43;;;;;;;10.87;97.19;97158.03;5029786;28;20264;-68
2021/10/30 10:59:12;;;;;;;14.07;11.33;;;;;;;10.87;96.91;97150.09;5046096;28;20211;-69
2021/10/30 11:01:46;;;;;;;13.27;11.97;;;;;;;11.07;98.04;97134.41;5042261;28;20706;-69
2021/10/30 11:04:14;;;;;;;11.80;10.70;;;;;;;11.37;92.57;97136.09;5040158;28;20488;-69
2021/10/30 11:06:45;;;;;;;14.70;11.70;;;;;;;11.29;87.48;97137.88;5044887;28;20293;-69
2021/10/30 11:09:17;;;;;;;11.90;10.70;;;;;;;11.26;86.25;97126.81;5039313;28;20207;-67
2021/10/30 11:11:45;;;;;;;11.87;10.77;;;;;;;10.83;88.33;97125.78;5035577;28;20228;-68
2021/10/30 11:14:14;;;;;;;12.73;11.43;;;;;;;10.92;90.20;97126.50;5037051;28;20318;-70
2021/10/30 11:16:46;;;;;;;12.07;10.90;;;;;;;10.83;90.51;97122.31;5014737;28;20314;-69
2021/10/30 11:19:24;;;;;;;12.00;10.80;;;;;;;10.84;91.45;97116.81;5036810;28;20207;-69
2021/10/30 11:22:00;;;;;;;13.43;11.57;;;;;;;10.89;90.94;97115.44;5044979;28;20222;-68
2021/10/30 11:24:32;;;;;;;13.37;12.03;;;;;;;11.17;89.24;97123.47;5028057;28;20238;-69
2021/10/30 11:27:06;;;;;;;13.70;12.37;;;;;;;11.10;87.12;97120.75;5026625;28;20227;-67
2021/10/30 11:29:35;;;;;;;12.03;10.83;;;;;;;11.18;90.50;97119.81;5028566;28;20334;-70